Time,TemperatureF,DewpointF,PressureIn,WindDirection,WindDirectionDegrees,WindSpeedMPH,WindSpeedGustMPH,Humidity,HourlyPrecipIn,Conditions,Clouds,dailyrainin,SoftwareType,DateUTC
2013-02-11 00:02:00,47.0,47.0,29.71,SW,225,2.0,5.0,100,0.00,,,0.16,,2013-02-11 05:02:00,
2013-02-11 00:12:00,47.0,47.0,29.71,SSE,157,4.0,7.0,100,0.00,,,0.16,,2013-02-11 05:12:00,
2013-02-11 00:22:00,47.0,47.0,29.71,SSE,157,4.0,7.0,100,0.00,,,0.16,,2013-02-11 05:22:00,
2013-02-11 00:32:00,47.0,47.0,29.69,ESE,112,3.0,9.0,100,0.00,,,0.16,,2013-02-11 05:32:00,
2013-02-11 00:42:00,47.0,47.0,29.69,SSE,157,3.0,6.0,100,0.00,,,0.16,,2013-02-11 05:42:00,
2013-02-11 00:53:00,47.0,47.0,29.69,SSE,157,3.0,6.0,100,0.00,,,0.16,,2013-02-11 05:53:00,
2013-02-11 01:02:00,47.0,47.0,29.69,South,180,2.0,4.0,100,0.00,,,0.16,,2013-02-11 06:02:00,
2013-02-11 01:12:00,47.0,47.0,29.69,South,180,2.0,8.0,100,0.00,,,0.16,,2013-02-11 06:12:00,
2013-02-11 01:22:00,47.0,47.0,29.69,South,180,2.0,8.0,100,0.00,,,0.16,,2013-02-11 06:22:00,
2013-02-11 01:32:00,47.0,47.0,29.67,SW,225,3.0,6.0,100,0.00,,,0.16,,2013-02-11 06:32:00,
2013-02-11 01:42:00,47.0,47.0,29.67,SW,225,3.0,7.0,100,0.00,,,0.16,,2013-02-11 06:42:00,
2013-02-11 01:52:00,47.0,47.0,29.67,SW,225,3.0,7.0,100,0.00,,,0.16,,2013-02-11 06:52:00,
2013-02-11 02:01:00,47.0,47.0,29.69,SW,225,2.0,8.0,100,0.00,,,0.16,,2013-02-11 07:01:00,
2013-02-11 02:11:00,47.0,47.0,29.67,WSW,247,2.0,7.0,100,0.00,,,0.16,,2013-02-11 07:11:00,
2013-02-11 02:22:00,47.0,47.0,29.67,WSW,247,2.0,7.0,100,0.00,,,0.16,,2013-02-11 07:22:00,
2013-02-11 02:32:00,47.0,47.0,29.67,WSW,247,2.0,7.0,100,0.00,,,0.16,,2013-02-11 07:32:00,
2013-02-11 02:42:00,47.0,47.0,29.66,SSE,157,2.0,3.0,100,0.00,,,0.16,,2013-02-11 07:42:00,
2013-02-11 02:52:00,47.0,47.0,29.66,SSE,157,2.0,3.0,100,0.00,,,0.16,,2013-02-11 07:52:00,
2013-02-11 03:01:00,47.0,47.0,29.67,SE,135,2.0,8.0,100,0.00,,,0.16,,2013-02-11 08:01:00,
2013-02-11 03:11:00,48.0,48.0,29.66,SW,225,5.0,5.0,100,0.00,,,0.16,,2013-02-11 08:11:00,
2013-02-11 03:21:00,48.0,48.0,29.66,SW,225,5.0,5.0,100,0.00,,,0.16,,2013-02-11 08:21:00,
2013-02-11 03:32:00,48.0,48.0,29.66,SSE,157,7.0,10.0,100,0.00,,,0.16,,2013-02-11 08:32:00,
2013-02-11 03:42:00,47.0,47.0,29.65,South,180,5.0,13.0,100,0.00,,,0.16,,2013-02-11 08:42:00,
2013-02-11 03:52:00,47.0,47.0,29.65,South,180,5.0,13.0,100,0.00,,,0.16,,2013-02-11 08:52:00,
2013-02-11 04:01:00,47.0,47.0,29.65,West,270,6.0,14.0,100,0.00,,,0.16,,2013-02-11 09:01:00,
2013-02-11 04:12:00,47.0,47.0,29.63,West,270,6.0,7.0,100,0.00,,,0.16,,2013-02-11 09:12:00,
2013-02-11 04:21:00,47.0,47.0,29.63,West,270,6.0,7.0,100,0.00,,,0.16,,2013-02-11 09:21:00,
2013-02-11 04:32:00,46.0,46.0,29.64,WSW,247,7.0,19.0,100,0.00,,,0.16,,2013-02-11 09:32:00,
2013-02-11 04:42:00,46.0,46.0,29.64,WSW,247,7.0,19.0,100,0.00,,,0.16,,2013-02-11 09:42:00,
2013-02-11 04:52:00,46.0,45.0,29.64,WSW,247,8.0,10.0,98,0.00,,,0.16,,2013-02-11 09:52:00,
2013-02-11 05:01:00,46.0,42.0,29.64,WSW,247,9.0,9.0,86,0.00,,,0.16,,2013-02-11 10:01:00,
2013-02-11 05:11:00,45.0,41.0,29.66,SW,225,9.0,17.0,86,0.00,,,0.16,,2013-02-11 10:11:00,
2013-02-11 05:21:00,45.0,41.0,29.66,SW,225,9.0,17.0,86,0.00,,,0.16,,2013-02-11 10:21:00,
2013-02-11 05:32:00,45.0,40.0,29.66,WSW,247,11.0,18.0,83,0.00,,,0.16,,2013-02-11 10:32:00,
2013-02-11 05:42:00,43.0,38.0,29.67,West,270,11.0,19.0,83,0.00,,,0.16,,2013-02-11 10:42:00,
2013-02-11 05:52:00,43.0,38.0,29.67,West,270,11.0,19.0,83,0.00,,,0.16,,2013-02-11 10:52:00,
2013-02-11 06:02:00,42.0,38.0,29.69,West,270,9.0,12.0,84,0.00,,,0.16,,2013-02-11 11:02:00,
2013-02-11 06:11:00,42.0,38.0,29.69,West,270,9.0,12.0,84,0.00,,,0.16,,2013-02-11 11:11:00,
2013-02-11 06:22:00,41.0,34.0,29.67,SW,225,12.0,12.0,75,0.00,,,0.16,,2013-02-11 11:22:00,
2013-02-11 06:32:00,40.0,34.0,29.70,West,270,9.0,19.0,80,0.00,,,0.16,,2013-02-11 11:32:00,
2013-02-11 06:42:00,40.0,33.0,29.71,SSW,202,13.0,15.0,77,0.00,,,0.16,,2013-02-11 11:42:00,
2013-02-11 06:52:00,40.0,33.0,29.71,SSW,202,13.0,15.0,77,0.00,,,0.16,,2013-02-11 11:52:00,
2013-02-11 07:03:00,40.0,33.0,29.71,SSW,202,13.0,20.0,76,0.00,,,0.16,,2013-02-11 12:03:00,
2013-02-11 07:12:00,39.0,33.0,29.72,West,270,10.0,17.0,78,0.00,,,0.16,,2013-02-11 12:12:00,
2013-02-11 07:22:00,39.0,33.0,29.72,West,270,10.0,17.0,78,0.00,,,0.16,,2013-02-11 12:22:00,
2013-02-11 07:32:00,39.0,33.0,29.72,WSW,247,11.0,20.0,80,0.00,,,0.16,,2013-02-11 12:32:00,
2013-02-11 07:42:00,39.0,32.0,29.72,West,270,14.0,27.0,76,0.00,,,0.16,,2013-02-11 12:42:00,
2013-02-11 07:52:00,39.0,32.0,29.72,West,270,14.0,27.0,76,0.00,,,0.16,,2013-02-11 12:52:00,
2013-02-11 08:02:00,38.0,33.0,29.71,SW,225,15.0,29.0,81,0.00,,,0.16,,2013-02-11 13:02:00,
2013-02-11 08:12:00,37.0,32.0,29.75,SW,225,14.0,22.0,82,0.00,,,0.16,,2013-02-11 13:12:00,
2013-02-11 08:22:00,37.0,32.0,29.75,SW,225,14.0,22.0,82,0.00,,,0.16,,2013-02-11 13:22:00,
2013-02-11 08:32:00,36.0,31.0,29.75,WNW,292,14.0,27.0,81,0.00,,,0.16,,2013-02-11 13:32:00,
2013-02-11 08:42:00,36.0,31.0,29.75,WNW,292,14.0,27.0,81,0.00,,,0.16,,2013-02-11 13:42:00,
2013-02-11 08:52:00,35.0,29.0,29.79,West,270,13.0,33.0,77,0.00,,,0.16,,2013-02-11 13:52:00,
2013-02-11 09:02:00,35.0,29.0,29.77,SW,225,14.0,24.0,78,0.00,,,0.16,,2013-02-11 14:02:00,
2013-02-11 09:12:00,35.0,29.0,29.77,SW,225,14.0,24.0,78,0.00,,,0.16,,2013-02-11 14:12:00,
2013-02-11 09:22:00,35.0,29.0,29.78,NW,315,17.0,22.0,77,0.00,,,0.16,,2013-02-11 14:22:00,
2013-02-11 09:33:00,35.0,30.0,29.77,WSW,247,14.0,19.0,81,0.00,,,0.16,,2013-02-11 14:33:00,
2013-02-11 09:42:00,34.0,29.0,29.78,WSW,247,12.0,17.0,82,0.00,,,0.16,,2013-02-11 14:42:00,
2013-02-11 09:53:00,34.0,29.0,29.78,WSW,247,12.0,17.0,82,0.00,,,0.16,,2013-02-11 14:53:00,
2013-02-11 10:02:00,34.0,29.0,29.79,WSW,247,12.0,31.0,82,0.00,,,0.16,,2013-02-11 15:02:00,
2013-02-11 10:11:00,33.0,27.0,29.81,West,270,14.0,24.0,77,0.00,,,0.16,,2013-02-11 15:11:00,
2013-02-11 10:22:00,33.0,27.0,29.81,West,270,14.0,24.0,77,0.00,,,0.16,,2013-02-11 15:22:00,
2013-02-11 10:32:00,33.0,27.0,29.82,West,270,13.0,22.0,78,0.00,,,0.16,,2013-02-11 15:32:00,
2013-02-11 10:42:00,33.0,28.0,29.81,West,270,11.0,12.0,81,0.00,,,0.16,,2013-02-11 15:42:00,
2013-02-11 10:52:00,33.0,28.0,29.81,West,270,11.0,12.0,81,0.00,,,0.16,,2013-02-11 15:52:00,
2013-02-11 11:02:00,33.0,28.0,29.81,SW,225,10.0,17.0,82,0.00,,,0.16,,2013-02-11 16:02:00,
2013-02-11 11:12:00,32.0,28.0,29.81,WNW,292,11.0,29.0,86,0.00,,,0.16,,2013-02-11 16:12:00,
2013-02-11 11:22:00,32.0,28.0,29.81,WNW,292,11.0,29.0,86,0.00,,,0.16,,2013-02-11 16:22:00,
2013-02-11 11:32:00,32.0,29.0,29.81,SW,225,11.0,17.0,90,0.00,,,0.16,,2013-02-11 16:32:00,
2013-02-11 11:42:00,32.0,29.0,29.83,WSW,247,11.0,16.0,89,0.00,,,0.16,,2013-02-11 16:42:00,
2013-02-11 11:53:00,32.0,29.0,29.83,WSW,247,11.0,16.0,89,0.00,,,0.16,,2013-02-11 16:53:00,
2013-02-11 12:02:00,33.0,28.0,29.84,WSW,247,14.0,20.0,81,0.00,,,0.16,,2013-02-11 17:02:00,
2013-02-11 12:11:00,33.0,28.0,29.84,WSW,247,14.0,20.0,81,0.00,,,0.16,,2013-02-11 17:11:00,
2013-02-11 12:22:00,33.0,28.0,29.82,West,270,11.0,17.0,81,0.00,,,0.16,,2013-02-11 17:22:00,
2013-02-11 12:32:00,33.0,28.0,29.82,WSW,247,11.0,23.0,80,0.00,,,0.16,,2013-02-11 17:32:00,
2013-02-11 12:42:00,33.0,28.0,29.82,WSW,247,11.0,23.0,80,0.00,,,0.16,,2013-02-11 17:42:00,
2013-02-11 12:53:00,32.0,28.0,29.83,WSW,247,11.0,31.0,84,0.00,,,0.16,,2013-02-11 17:53:00,
2013-02-11 13:02:00,33.0,28.0,29.84,SW,225,10.0,14.0,80,0.00,,,0.16,,2013-02-11 18:02:00,
2013-02-11 13:11:00,33.0,28.0,29.84,SW,225,10.0,14.0,80,0.00,,,0.16,,2013-02-11 18:11:00,
2013-02-11 13:22:00,33.0,26.0,29.83,SW,225,13.0,23.0,76,0.00,,,0.16,,2013-02-11 18:22:00,
2013-02-11 13:32:00,33.0,28.0,29.82,NW,315,13.0,21.0,80,0.00,,,0.16,,2013-02-11 18:32:00,
2013-02-11 13:42:00,33.0,29.0,29.83,SW,225,12.0,26.0,84,0.00,,,0.16,,2013-02-11 18:42:00,
2013-02-11 13:54:00,33.0,29.0,29.83,SW,225,12.0,26.0,84,0.00,,,0.16,,2013-02-11 18:54:00,
2013-02-11 14:02:00,32.0,28.0,29.84,West,270,16.0,23.0,85,0.00,,,0.16,,2013-02-11 19:02:00,
2013-02-11 14:11:00,33.0,28.0,29.83,SW,225,13.0,19.0,80,0.00,,,0.16,,2013-02-11 19:11:00,
2013-02-11 14:22:00,33.0,28.0,29.83,SW,225,13.0,19.0,80,0.00,,,0.16,,2013-02-11 19:22:00,
2013-02-11 14:32:00,33.0,27.0,29.84,West,270,13.0,18.0,79,0.00,,,0.16,,2013-02-11 19:32:00,
2013-02-11 14:42:00,33.0,28.0,29.84,WSW,247,13.0,27.0,81,0.00,,,0.16,,2013-02-11 19:42:00,
2013-02-11 14:52:00,33.0,28.0,29.84,WSW,247,13.0,27.0,81,0.00,,,0.16,,2013-02-11 19:52:00,
2013-02-11 15:01:00,33.0,28.0,29.85,WSW,247,13.0,24.0,81,0.00,,,0.16,,2013-02-11 20:01:00,
2013-02-11 15:11:00,33.0,27.0,29.85,West,270,11.0,14.0,79,0.00,,,0.16,,2013-02-11 20:11:00,
2013-02-11 15:21:00,33.0,27.0,29.85,West,270,11.0,14.0,79,0.00,,,0.16,,2013-02-11 20:21:00,
2013-02-11 15:32:00,33.0,27.0,29.85,WSW,247,11.0,19.0,79,0.00,,,0.16,,2013-02-11 20:32:00,
2013-02-11 15:42:00,33.0,27.0,29.85,WSW,247,12.0,23.0,79,0.00,,,0.16,,2013-02-11 20:42:00,
2013-02-11 15:52:00,33.0,27.0,29.85,WSW,247,12.0,23.0,79,0.00,,,0.16,,2013-02-11 20:52:00,
2013-02-11 16:02:00,33.0,27.0,29.85,West,270,15.0,23.0,78,0.00,,,0.16,,2013-02-11 21:02:00,
2013-02-11 16:12:00,33.0,28.0,29.88,WNW,292,12.0,19.0,81,0.00,,,0.15,,2013-02-11 21:12:00,
2013-02-11 16:22:00,33.0,28.0,29.88,WNW,292,12.0,19.0,81,0.00,,,0.15,,2013-02-11 21:22:00,
2013-02-11 16:32:00,33.0,28.0,29.88,WSW,247,13.0,20.0,81,0.00,,,0.14,,2013-02-11 21:32:00,
2013-02-11 16:42:00,32.0,27.0,29.89,WSW,247,14.0,22.0,82,0.00,,,0.12,,2013-02-11 21:42:00,
2013-02-11 16:52:00,32.0,27.0,29.89,WSW,247,14.0,22.0,82,0.00,,,0.12,,2013-02-11 21:52:00,
2013-02-11 17:02:00,32.0,27.0,29.90,West,270,11.0,22.0,83,0.00,,,0.09,,2013-02-11 22:02:00,
2013-02-11 17:12:00,32.0,27.0,29.90,WSW,247,13.0,21.0,82,0.00,,,0.07,,2013-02-11 22:12:00,
2013-02-11 17:22:00,32.0,27.0,29.90,WSW,247,13.0,21.0,82,0.00,,,0.07,,2013-02-11 22:22:00,
2013-02-11 17:32:00,32.0,27.0,29.91,West,270,11.0,20.0,83,0.00,,,0.06,,2013-02-11 22:32:00,
2013-02-11 17:42:00,32.0,27.0,29.91,West,270,11.0,20.0,83,0.00,,,0.06,,2013-02-11 22:42:00,
2013-02-11 17:52:00,32.0,28.0,29.93,SW,225,14.0,25.0,85,0.00,,,0.06,,2013-02-11 22:52:00,
2013-02-11 18:02:00,32.0,28.0,29.91,West,270,12.0,17.0,85,0.00,,,0.06,,2013-02-11 23:02:00,
2013-02-11 18:11:00,32.0,28.0,29.91,West,270,12.0,17.0,85,0.00,,,0.06,,2013-02-11 23:11:00,
2013-02-11 18:22:00,32.0,27.0,29.93,WSW,247,11.0,12.0,83,0.00,,,0.06,,2013-02-11 23:22:00,
2013-02-11 18:32:00,32.0,27.0,29.93,West,270,9.0,18.0,83,0.00,,,0.06,,2013-02-11 23:32:00,
2013-02-11 18:42:00,32.0,27.0,29.93,West,270,9.0,18.0,83,0.00,,,0.06,,2013-02-11 23:42:00,
2013-02-11 18:52:00,32.0,27.0,29.96,West,270,10.0,20.0,83,0.00,,,0.06,,2013-02-11 23:52:00,
2013-02-11 19:02:00,31.0,27.0,29.94,WSW,247,11.0,17.0,84,0.00,,,0.06,,2013-02-12 00:02:00,
2013-02-11 19:12:00,31.0,27.0,29.94,WSW,247,11.0,17.0,84,0.00,,,0.06,,2013-02-12 00:12:00,
2013-02-11 19:22:00,31.0,26.0,29.96,WNW,292,10.0,17.0,83,0.00,,,0.06,,2013-02-12 00:22:00,
2013-02-11 19:32:00,31.0,26.0,29.96,WSW,247,10.0,19.0,83,0.00,,,0.06,,2013-02-12 00:32:00,
2013-02-11 19:42:00,31.0,26.0,29.96,WSW,247,10.0,19.0,83,0.00,,,0.06,,2013-02-12 00:42:00,
2013-02-11 19:52:00,31.0,26.0,29.98,SW,225,11.0,17.0,83,0.00,,,0.06,,2013-02-12 00:52:00,
2013-02-11 20:02:00,31.0,28.0,29.97,WSW,247,8.0,12.0,87,0.00,,,0.06,,2013-02-12 01:02:00,
2013-02-11 20:11:00,31.0,28.0,29.97,WSW,247,8.0,12.0,87,0.00,,,0.06,,2013-02-12 01:11:00,
2013-02-11 20:22:00,31.0,28.0,29.97,WSW,247,9.0,17.0,87,0.00,,,0.05,,2013-02-12 01:22:00,
2013-02-11 20:32:00,31.0,27.0,29.97,West,270,10.0,16.0,84,0.00,,,0.05,,2013-02-12 01:32:00,
2013-02-11 20:42:00,31.0,26.0,29.98,WNW,292,12.0,22.0,82,0.00,,,0.03,,2013-02-12 01:42:00,
2013-02-11 20:52:00,31.0,26.0,29.98,WNW,292,12.0,22.0,82,0.00,,,0.03,,2013-02-12 01:52:00,
2013-02-11 21:02:00,30.0,25.0,29.98,WSW,247,12.0,29.0,81,0.00,,,0.02,,2013-02-12 02:02:00,
2013-02-11 21:12:00,30.0,25.0,29.98,WNW,292,11.0,17.0,82,0.00,,,0.01,,2013-02-12 02:12:00,
2013-02-11 21:22:00,30.0,25.0,29.98,WNW,292,11.0,17.0,82,0.00,,,0.01,,2013-02-12 02:22:00,
2013-02-11 21:32:00,30.0,25.0,29.98,West,270,9.0,12.0,82,0.00,,,0.01,,2013-02-12 02:32:00,
2013-02-11 21:42:00,30.0,25.0,29.98,West,270,9.0,12.0,82,0.00,,,0.01,,2013-02-12 02:42:00,
2013-02-11 21:53:00,30.0,25.0,29.98,West,270,10.0,15.0,82,0.00,,,0.01,,2013-02-12 02:53:00,
2013-02-11 22:02:00,30.0,25.0,30.00,WSW,247,11.0,16.0,82,0.00,,,0.01,,2013-02-12 03:02:00,
2013-02-11 22:11:00,30.0,25.0,30.02,West,270,8.0,14.0,82,0.00,,,0.01,,2013-02-12 03:11:00,
2013-02-11 22:21:00,30.0,25.0,30.02,West,270,8.0,14.0,82,0.00,,,0.01,,2013-02-12 03:21:00,
2013-02-11 22:32:00,30.0,25.0,30.01,WSW,247,8.0,15.0,82,0.00,,,0.01,,2013-02-12 03:32:00,
2013-02-11 22:42:00,30.0,26.0,30.01,West,270,8.0,10.0,84,0.00,,,0.00,,2013-02-12 03:42:00,
2013-02-11 22:52:00,30.0,26.0,30.01,West,270,8.0,10.0,84,0.00,,,0.00,,2013-02-12 03:52:00,
2013-02-11 23:01:00,29.0,25.0,30.01,West,270,8.0,9.0,85,0.00,,,0.00,,2013-02-12 04:01:00,
2013-02-11 23:11:00,29.0,25.0,30.01,West,270,8.0,9.0,85,0.00,,,0.00,,2013-02-12 04:11:00,
2013-02-11 23:21:00,29.0,25.0,30.03,West,270,7.0,9.0,85,0.00,,,0.00,,2013-02-12 04:21:00,
2013-02-11 23:31:00,29.0,25.0,30.02,West,270,9.0,16.0,85,0.00,,,0.00,,2013-02-12 04:31:00,
2013-02-11 23:42:00,29.0,25.0,30.02,West,270,9.0,16.0,85,0.00,,,0.00,,2013-02-12 04:42:00,
2013-02-11 23:52:00,29.0,25.0,30.02,WNW,292,10.0,15.0,86,0.00,,,0.00,,2013-02-12 04:52:00,